sensor_id;sensor_type;location;lat;lon;timestamp;P1;durP1;ratioP1;P2;durP2;ratioP2
27895;SDS011;15241;48.374;10.876;2022-08-04T00:04:00;3.62;;;2.58;;
27895;SDS011;15241;48.374;10.876;2022-08-04T00:09:02;4.47;;;1.82;;
27895;SDS011;15241;48.374;10.876;2022-08-04T00:14:12;3.10;;;1.70;;
27895;SDS011;15241;48.374;10.876;2022-08-04T00:19:12;3.08;;;1.82;;
27895;SDS011;15241;48.374;10.876;2022-08-04T00:24:14;3.23;;;2.03;;
27895;SDS011;15241;48.374;10.876;2022-08-04T00:29:14;5.72;;;2.20;;
27895;SDS011;15241;48.374;10.876;2022-08-04T00:34:13;5.50;;;2.05;;
27895;SDS011;15241;48.374;10.876;2022-08-04T00:39:12;5.55;;;2.37;;
27895;SDS011;15241;48.374;10.876;2022-08-04T00:44:16;4.22;;;2.30;;
27895;SDS011;15241;48.374;10.876;2022-08-04T00:55:04;4.12;;;2.37;;
27895;SDS011;15241;48.374;10.876;2022-08-04T01:00:12;4.42;;;2.42;;
27895;SDS011;15241;48.374;10.876;2022-08-04T01:05:14;2.85;;;2.17;;
27895;SDS011;15241;48.374;10.876;2022-08-04T01:10:19;3.40;;;2.37;;
27895;SDS011;15241;48.374;10.876;2022-08-04T04:00:33;4.00;;;2.90;;
27895;SDS011;15241;48.374;10.876;2022-08-04T04:05:45;3.80;;;2.77;;
27895;SDS011;15241;48.374;10.876;2022-08-04T04:11:16;6.50;;;3.33;;
27895;SDS011;15241;48.374;10.876;2022-08-04T04:21:57;5.00;;;3.12;;
27895;SDS011;15241;48.374;10.876;2022-08-04T04:27:04;4.22;;;2.45;;
27895;SDS011;15241;48.374;10.876;2022-08-04T04:32:12;10.90;;;3.08;;
27895;SDS011;15241;48.374;10.876;2022-08-04T04:42:53;8.35;;;3.20;;
27895;SDS011;15241;48.374;10.876;2022-08-04T04:48:07;7.37;;;3.15;;
27895;SDS011;15241;48.374;10.876;2022-08-04T04:53:11;5.10;;;3.12;;
27895;SDS011;15241;48.374;10.876;2022-08-04T04:58:21;6.12;;;3.45;;
27895;SDS011;15241;48.374;10.876;2022-08-04T05:03:27;4.87;;;3.60;;
27895;SDS011;15241;48.374;10.876;2022-08-04T05:08:37;4.42;;;3.10;;
27895;SDS011;15241;48.374;10.876;2022-08-04T05:13:58;5.47;;;3.25;;
27895;SDS011;15241;48.374;10.876;2022-08-04T05:19:02;8.13;;;3.30;;
27895;SDS011;15241;48.374;10.876;2022-08-04T05:24:05;5.90;;;3.50;;
27895;SDS011;15241;48.374;10.876;2022-08-04T05:29:08;6.22;;;3.25;;
27895;SDS011;15241;48.374;10.876;2022-08-04T05:34:12;7.35;;;3.40;;
27895;SDS011;15241;48.374;10.876;2022-08-04T05:39:14;8.87;;;3.47;;
27895;SDS011;15241;48.374;10.876;2022-08-04T05:44:16;4.92;;;3.52;;
27895;SDS011;15241;48.374;10.876;2022-08-04T05:49:18;4.62;;;3.30;;
27895;SDS011;15241;48.374;10.876;2022-08-04T05:54:18;4.80;;;3.10;;
27895;SDS011;15241;48.374;10.876;2022-08-04T05:59:18;6.03;;;3.27;;
27895;SDS011;15241;48.374;10.876;2022-08-04T06:04:18;5.08;;;3.10;;
27895;SDS011;15241;48.374;10.876;2022-08-04T06:09:18;7.00;;;3.65;;
27895;SDS011;15241;48.374;10.876;2022-08-04T06:14:17;5.50;;;3.40;;
27895;SDS011;15241;48.374;10.876;2022-08-04T06:19:19;4.37;;;3.20;;
27895;SDS011;15241;48.374;10.876;2022-08-04T06:24:21;4.92;;;2.90;;
27895;SDS011;15241;48.374;10.876;2022-08-04T06:29:24;7.97;;;3.10;;
27895;SDS011;15241;48.374;10.876;2022-08-04T06:39:30;4.50;;;3.00;;
27895;SDS011;15241;48.374;10.876;2022-08-04T06:44:32;4.40;;;3.47;;
27895;SDS011;15241;48.374;10.876;2022-08-04T06:49:33;4.25;;;2.92;;
27895;SDS011;15241;48.374;10.876;2022-08-04T06:54:33;5.00;;;3.33;;
27895;SDS011;15241;48.374;10.876;2022-08-04T06:59:33;4.33;;;3.47;;
27895;SDS011;15241;48.374;10.876;2022-08-04T07:04:33;9.63;;;3.58;;
27895;SDS011;15241;48.374;10.876;2022-08-04T07:09:32;4.28;;;2.95;;
27895;SDS011;15241;48.374;10.876;2022-08-04T07:14:32;4.40;;;3.22;;
27895;SDS011;15241;48.374;10.876;2022-08-04T07:19:31;6.50;;;3.47;;
27895;SDS011;15241;48.374;10.876;2022-08-04T07:24:31;4.30;;;3.17;;
27895;SDS011;15241;48.374;10.876;2022-08-04T07:29:30;4.62;;;3.00;;
27895;SDS011;15241;48.374;10.876;2022-08-04T07:34:31;4.80;;;3.60;;
27895;SDS011;15241;48.374;10.876;2022-08-04T07:39:30;7.78;;;3.22;;
27895;SDS011;15241;48.374;10.876;2022-08-04T07:44:30;4.90;;;3.08;;
27895;SDS011;15241;48.374;10.876;2022-08-04T07:49:30;7.67;;;3.22;;
27895;SDS011;15241;48.374;10.876;2022-08-04T07:54:29;6.90;;;3.40;;
27895;SDS011;15241;48.374;10.876;2022-08-04T07:59:29;4.37;;;3.27;;
27895;SDS011;15241;48.374;10.876;2022-08-04T08:04:28;4.03;;;3.05;;
27895;SDS011;15241;48.374;10.876;2022-08-04T08:09:28;3.87;;;3.05;;
27895;SDS011;15241;48.374;10.876;2022-08-04T08:14:30;6.58;;;2.90;;
27895;SDS011;15241;48.374;10.876;2022-08-04T08:19:31;4.87;;;2.67;;
27895;SDS011;15241;48.374;10.876;2022-08-04T08:24:34;5.92;;;2.75;;
27895;SDS011;15241;48.374;10.876;2022-08-04T08:29:33;3.15;;;2.85;;
27895;SDS011;15241;48.374;10.876;2022-08-04T08:34:32;7.92;;;2.62;;
27895;SDS011;15241;48.374;10.876;2022-08-04T08:39:32;3.00;;;2.70;;
27895;SDS011;15241;48.374;10.876;2022-08-04T08:44:54;3.95;;;3.00;;
27895;SDS011;15241;48.374;10.876;2022-08-04T08:55:50;3.37;;;2.72;;
27895;SDS011;15241;48.374;10.876;2022-08-04T09:00:58;2.95;;;2.72;;
27895;SDS011;15241;48.374;10.876;2022-08-04T09:06:05;4.12;;;2.72;;
27895;SDS011;15241;48.374;10.876;2022-08-04T09:11:14;4.17;;;2.53;;
27895;SDS011;15241;48.374;10.876;2022-08-04T09:16:16;4.33;;;2.50;;
27895;SDS011;15241;48.374;10.876;2022-08-04T09:21:22;3.45;;;3.15;;
27895;SDS011;15241;48.374;10.876;2022-08-04T09:26:24;3.75;;;2.80;;
27895;SDS011;15241;48.374;10.876;2022-08-04T09:31:27;4.60;;;2.50;;
27895;SDS011;15241;48.374;10.876;2022-08-04T09:36:30;3.30;;;2.02;;
27895;SDS011;15241;48.374;10.876;2022-08-04T09:41:43;3.10;;;2.30;;
27895;SDS011;15241;48.374;10.876;2022-08-04T09:46:45;3.72;;;2.33;;
27895;SDS011;15241;48.374;10.876;2022-08-04T09:51:55;8.25;;;2.50;;
27895;SDS011;15241;48.374;10.876;2022-08-04T09:56:57;2.90;;;2.08;;
27895;SDS011;15241;48.374;10.876;2022-08-04T10:02:02;2.80;;;1.90;;
27895;SDS011;15241;48.374;10.876;2022-08-04T10:07:15;2.37;;;2.17;;
27895;SDS011;15241;48.374;10.876;2022-08-04T10:12:28;2.45;;;2.25;;
27895;SDS011;15241;48.374;10.876;2022-08-04T10:17:33;2.30;;;2.10;;
27895;SDS011;15241;48.374;10.876;2022-08-04T10:23:04;5.37;;;2.00;;
27895;SDS011;15241;48.374;10.876;2022-08-04T10:28:08;2.10;;;2.00;;
27895;SDS011;15241;48.374;10.876;2022-08-04T10:33:10;2.40;;;2.20;;
27895;SDS011;15241;48.374;10.876;2022-08-04T10:38:21;2.10;;;1.90;;
27895;SDS011;15241;48.374;10.876;2022-08-04T10:43:24;2.22;;;1.80;;
27895;SDS011;15241;48.374;10.876;2022-08-04T10:48:30;2.02;;;1.90;;
27895;SDS011;15241;48.374;10.876;2022-08-04T10:53:32;3.72;;;2.70;;
27895;SDS011;15241;48.374;10.876;2022-08-04T10:58:35;2.07;;;1.87;;
27895;SDS011;15241;48.374;10.876;2022-08-04T11:03:40;5.33;;;2.15;;
27895;SDS011;15241;48.374;10.876;2022-08-04T11:08:47;2.12;;;1.80;;
27895;SDS011;15241;48.374;10.876;2022-08-04T11:13:51;2.00;;;1.90;;
27895;SDS011;15241;48.374;10.876;2022-08-04T11:18:56;3.90;;;1.92;;
27895;SDS011;15241;48.374;10.876;2022-08-04T11:23:58;5.03;;;2.12;;
27895;SDS011;15241;48.374;10.876;2022-08-04T11:29:03;2.42;;;1.85;;
27895;SDS011;15241;48.374;10.876;2022-08-04T11:34:04;2.10;;;1.72;;
27895;SDS011;15241;48.374;10.876;2022-08-04T11:39:07;2.25;;;1.70;;
27895;SDS011;15241;48.374;10.876;2022-08-04T11:49:09;1.75;;;1.60;;
27895;SDS011;15241;48.374;10.876;2022-08-04T11:54:10;2.58;;;2.10;;
27895;SDS011;15241;48.374;10.876;2022-08-04T11:59:11;2.33;;;1.70;;
27895;SDS011;15241;48.374;10.876;2022-08-04T12:04:12;1.98;;;1.60;;
27895;SDS011;15241;48.374;10.876;2022-08-04T12:09:20;4.92;;;2.20;;
27895;SDS011;15241;48.374;10.876;2022-08-04T12:14:27;3.27;;;2.00;;
27895;SDS011;15241;48.374;10.876;2022-08-04T12:19:31;1.95;;;1.75;;
27895;SDS011;15241;48.374;10.876;2022-08-04T12:24:36;3.25;;;1.70;;
27895;SDS011;15241;48.374;10.876;2022-08-04T12:29:43;5.28;;;2.12;;
27895;SDS011;15241;48.374;10.876;2022-08-04T12:34:46;3.27;;;2.15;;
27895;SDS011;15241;48.374;10.876;2022-08-04T12:39:49;1.80;;;1.70;;
27895;SDS011;15241;48.374;10.876;2022-08-04T12:44:50;3.05;;;2.00;;
27895;SDS011;15241;48.374;10.876;2022-08-04T12:49:49;2.80;;;1.80;;
27895;SDS011;15241;48.374;10.876;2022-08-04T12:54:51;3.72;;;1.85;;
27895;SDS011;15241;48.374;10.876;2022-08-04T12:59:52;2.05;;;1.90;;
27895;SDS011;15241;48.374;10.876;2022-08-04T13:04:51;2.77;;;1.60;;
27895;SDS011;15241;48.374;10.876;2022-08-04T13:09:52;2.20;;;2.00;;
27895;SDS011;15241;48.374;10.876;2022-08-04T13:14:51;3.22;;;2.15;;
27895;SDS011;15241;48.374;10.876;2022-08-04T13:19:53;2.12;;;1.98;;
27895;SDS011;15241;48.374;10.876;2022-08-04T13:24:52;3.22;;;2.00;;
27895;SDS011;15241;48.374;10.876;2022-08-04T13:29:54;3.23;;;2.00;;
27895;SDS011;15241;48.374;10.876;2022-08-04T13:34:54;3.10;;;2.30;;
27895;SDS011;15241;48.374;10.876;2022-08-04T13:39:55;3.17;;;2.00;;
27895;SDS011;15241;48.374;10.876;2022-08-04T13:44:56;3.03;;;1.77;;
27895;SDS011;15241;48.374;10.876;2022-08-04T13:55:32;2.83;;;2.22;;
27895;SDS011;15241;48.374;10.876;2022-08-04T14:00:37;3.05;;;2.20;;
27895;SDS011;15241;48.374;10.876;2022-08-04T14:05:39;2.22;;;1.90;;
27895;SDS011;15241;48.374;10.876;2022-08-04T14:10:38;2.35;;;2.00;;
27895;SDS011;15241;48.374;10.876;2022-08-04T14:15:38;2.92;;;2.00;;
27895;SDS011;15241;48.374;10.876;2022-08-04T14:25:37;3.45;;;2.02;;
27895;SDS011;15241;48.374;10.876;2022-08-04T14:30:36;2.37;;;1.80;;
27895;SDS011;15241;48.374;10.876;2022-08-04T14:35:35;2.10;;;1.90;;
27895;SDS011;15241;48.374;10.876;2022-08-04T14:40:36;2.00;;;1.90;;
27895;SDS011;15241;48.374;10.876;2022-08-04T14:45:36;2.83;;;1.75;;
27895;SDS011;15241;48.374;10.876;2022-08-04T14:50:36;4.10;;;2.23;;
27895;SDS011;15241;48.374;10.876;2022-08-04T14:55:38;2.58;;;1.82;;
27895;SDS011;15241;48.374;10.876;2022-08-04T15:00:38;3.62;;;2.00;;
27895;SDS011;15241;48.374;10.876;2022-08-04T15:05:39;4.35;;;2.17;;
27895;SDS011;15241;48.374;10.876;2022-08-04T15:10:39;2.42;;;2.10;;
27895;SDS011;15241;48.374;10.876;2022-08-04T15:15:39;2.67;;;1.80;;
27895;SDS011;15241;48.374;10.876;2022-08-04T15:20:39;2.10;;;1.83;;
27895;SDS011;15241;48.374;10.876;2022-08-04T15:25:38;2.62;;;1.90;;
27895;SDS011;15241;48.374;10.876;2022-08-04T15:30:39;4.45;;;2.45;;
27895;SDS011;15241;48.374;10.876;2022-08-04T15:35:41;2.50;;;2.30;;
27895;SDS011;15241;48.374;10.876;2022-08-04T15:40:45;2.83;;;2.30;;
27895;SDS011;15241;48.374;10.876;2022-08-04T15:45:47;2.30;;;2.10;;
27895;SDS011;15241;48.374;10.876;2022-08-04T15:50:59;3.02;;;2.60;;
27895;SDS011;15241;48.374;10.876;2022-08-04T15:56:03;4.12;;;2.20;;
27895;SDS011;15241;48.374;10.876;2022-08-04T16:01:14;2.27;;;2.08;;
27895;SDS011;15241;48.374;10.876;2022-08-04T16:11:40;2.20;;;2.10;;
27895;SDS011;15241;48.374;10.876;2022-08-04T16:16:45;2.10;;;2.00;;
27895;SDS011;15241;48.374;10.876;2022-08-04T16:21:46;3.10;;;2.10;;
27895;SDS011;15241;48.374;10.876;2022-08-04T16:26:50;2.40;;;2.25;;
27895;SDS011;15241;48.374;10.876;2022-08-04T16:32:05;2.27;;;2.10;;
27895;SDS011;15241;48.374;10.876;2022-08-04T16:37:09;2.60;;;2.40;;
27895;SDS011;15241;48.374;10.876;2022-08-04T16:52:59;4.62;;;3.10;;
27895;SDS011;15241;48.374;10.876;2022-08-04T16:58:00;3.83;;;2.40;;
27895;SDS011;15241;48.374;10.876;2022-08-04T17:03:01;2.12;;;1.92;;
27895;SDS011;15241;48.374;10.876;2022-08-04T17:08:00;2.40;;;2.07;;
27895;SDS011;15241;48.374;10.876;2022-08-04T17:12:59;4.95;;;2.40;;
27895;SDS011;15241;48.374;10.876;2022-08-04T17:18:14;2.60;;;2.40;;
27895;SDS011;15241;48.374;10.876;2022-08-04T17:23:22;2.87;;;2.20;;
27895;SDS011;15241;48.374;10.876;2022-08-04T17:28:23;2.45;;;2.25;;
27895;SDS011;15241;48.374;10.876;2022-08-04T17:33:22;3.50;;;2.40;;
27895;SDS011;15241;48.374;10.876;2022-08-04T17:38:22;2.60;;;2.25;;
27895;SDS011;15241;48.374;10.876;2022-08-04T17:49:05;2.60;;;2.02;;
27895;SDS011;15241;48.374;10.876;2022-08-04T17:54:06;2.27;;;2.10;;
27895;SDS011;15241;48.374;10.876;2022-08-04T17:59:08;2.42;;;1.95;;
27895;SDS011;15241;48.374;10.876;2022-08-04T18:04:29;3.75;;;2.20;;
27895;SDS011;15241;48.374;10.876;2022-08-04T18:09:32;6.40;;;2.37;;
27895;SDS011;15241;48.374;10.876;2022-08-04T18:14:37;3.85;;;1.85;;
27895;SDS011;15241;48.374;10.876;2022-08-04T18:19:38;3.35;;;1.72;;
27895;SDS011;15241;48.374;10.876;2022-08-04T18:24:46;6.03;;;2.40;;
27895;SDS011;15241;48.374;10.876;2022-08-04T18:29:45;4.72;;;2.25;;
27895;SDS011;15241;48.374;10.876;2022-08-04T18:34:44;3.80;;;2.17;;
27895;SDS011;15241;48.374;10.876;2022-08-04T18:39:43;9.28;;;7.65;;
27895;SDS011;15241;48.374;10.876;2022-08-04T18:44:42;5.42;;;2.47;;
27895;SDS011;15241;48.374;10.876;2022-08-04T18:49:41;4.22;;;2.40;;
27895;SDS011;15241;48.374;10.876;2022-08-04T18:54:40;4.72;;;2.47;;
27895;SDS011;15241;48.374;10.876;2022-08-04T18:59:40;3.52;;;2.33;;
27895;SDS011;15241;48.374;10.876;2022-08-04T19:04:39;6.72;;;2.52;;
27895;SDS011;15241;48.374;10.876;2022-08-04T19:09:39;7.42;;;2.75;;
27895;SDS011;15241;48.374;10.876;2022-08-04T19:14:38;5.08;;;2.52;;
27895;SDS011;15241;48.374;10.876;2022-08-04T19:19:37;4.42;;;2.75;;
27895;SDS011;15241;48.374;10.876;2022-08-04T19:24:36;4.22;;;3.30;;
27895;SDS011;15241;48.374;10.876;2022-08-04T19:29:35;5.12;;;3.17;;
27895;SDS011;15241;48.374;10.876;2022-08-04T19:34:35;5.92;;;3.98;;
27895;SDS011;15241;48.374;10.876;2022-08-04T19:39:34;5.70;;;3.65;;
27895;SDS011;15241;48.374;10.876;2022-08-04T19:44:33;8.03;;;3.50;;
27895;SDS011;15241;48.374;10.876;2022-08-04T19:49:32;5.40;;;3.47;;
27895;SDS011;15241;48.374;10.876;2022-08-04T19:54:31;7.15;;;3.37;;
27895;SDS011;15241;48.374;10.876;2022-08-04T19:59:30;4.80;;;2.90;;
27895;SDS011;15241;48.374;10.876;2022-08-04T20:04:29;6.50;;;4.03;;
27895;SDS011;15241;48.374;10.876;2022-08-04T20:09:28;6.37;;;3.60;;
27895;SDS011;15241;48.374;10.876;2022-08-04T20:14:27;4.15;;;3.33;;
27895;SDS011;15241;48.374;10.876;2022-08-04T20:19:26;6.50;;;3.90;;
27895;SDS011;15241;48.374;10.876;2022-08-04T20:24:25;5.60;;;3.50;;
27895;SDS011;15241;48.374;10.876;2022-08-04T20:29:24;4.95;;;3.92;;
27895;SDS011;15241;48.374;10.876;2022-08-04T20:34:23;5.15;;;3.50;;
27895;SDS011;15241;48.374;10.876;2022-08-04T20:39:21;9.98;;;3.77;;
27895;SDS011;15241;48.374;10.876;2022-08-04T20:44:20;10.40;;;4.42;;
27895;SDS011;15241;48.374;10.876;2022-08-04T20:49:19;6.53;;;4.00;;
27895;SDS011;15241;48.374;10.876;2022-08-04T20:54:19;7.92;;;4.10;;
27895;SDS011;15241;48.374;10.876;2022-08-04T20:59:20;5.97;;;3.67;;
27895;SDS011;15241;48.374;10.876;2022-08-04T21:04:18;4.67;;;3.75;;
27895;SDS011;15241;48.374;10.876;2022-08-04T21:09:17;5.28;;;3.65;;
27895;SDS011;15241;48.374;10.876;2022-08-04T21:14:17;7.97;;;4.08;;
27895;SDS011;15241;48.374;10.876;2022-08-04T21:19:16;8.43;;;4.67;;
27895;SDS011;15241;48.374;10.876;2022-08-04T21:24:15;9.83;;;4.20;;
27895;SDS011;15241;48.374;10.876;2022-08-04T21:29:14;6.00;;;4.65;;
27895;SDS011;15241;48.374;10.876;2022-08-04T21:34:14;6.03;;;4.17;;
27895;SDS011;15241;48.374;10.876;2022-08-04T21:39:13;8.53;;;4.03;;
27895;SDS011;15241;48.374;10.876;2022-08-04T21:44:12;7.55;;;4.33;;
27895;SDS011;15241;48.374;10.876;2022-08-04T21:49:11;5.33;;;3.90;;
27895;SDS011;15241;48.374;10.876;2022-08-04T21:54:10;6.55;;;4.05;;
27895;SDS011;15241;48.374;10.876;2022-08-04T21:59:08;5.72;;;4.50;;
27895;SDS011;15241;48.374;10.876;2022-08-04T22:04:07;8.45;;;3.90;;
27895;SDS011;15241;48.374;10.876;2022-08-04T22:09:06;5.33;;;3.90;;
27895;SDS011;15241;48.374;10.876;2022-08-04T22:14:05;8.20;;;4.12;;
27895;SDS011;15241;48.374;10.876;2022-08-04T22:19:05;8.40;;;4.03;;
27895;SDS011;15241;48.374;10.876;2022-08-04T22:24:05;7.95;;;3.92;;
27895;SDS011;15241;48.374;10.876;2022-08-04T22:29:04;9.10;;;4.12;;
27895;SDS011;15241;48.374;10.876;2022-08-04T22:34:03;6.35;;;4.17;;
27895;SDS011;15241;48.374;10.876;2022-08-04T22:39:02;10.63;;;4.15;;
27895;SDS011;15241;48.374;10.876;2022-08-04T22:44:01;6.50;;;3.50;;
27895;SDS011;15241;48.374;10.876;2022-08-04T22:49:00;5.17;;;4.15;;
27895;SDS011;15241;48.374;10.876;2022-08-04T22:53:59;5.78;;;3.75;;
27895;SDS011;15241;48.374;10.876;2022-08-04T22:58:58;7.58;;;4.15;;
27895;SDS011;15241;48.374;10.876;2022-08-04T23:03:58;7.87;;;3.30;;
27895;SDS011;15241;48.374;10.876;2022-08-04T23:08:56;5.60;;;2.70;;
27895;SDS011;15241;48.374;10.876;2022-08-04T23:13:55;7.80;;;3.12;;
27895;SDS011;15241;48.374;10.876;2022-08-04T23:18:54;7.45;;;2.85;;
27895;SDS011;15241;48.374;10.876;2022-08-04T23:23:53;7.47;;;3.40;;
27895;SDS011;15241;48.374;10.876;2022-08-04T23:28:52;4.42;;;3.20;;
27895;SDS011;15241;48.374;10.876;2022-08-04T23:33:51;10.23;;;3.58;;
27895;SDS011;15241;48.374;10.876;2022-08-04T23:38:50;8.15;;;3.75;;
27895;SDS011;15241;48.374;10.876;2022-08-04T23:43:49;8.70;;;3.52;;
27895;SDS011;15241;48.374;10.876;2022-08-04T23:48:48;5.25;;;3.00;;
27895;SDS011;15241;48.374;10.876;2022-08-04T23:53:47;9.13;;;3.90;;
27895;SDS011;15241;48.374;10.876;2022-08-04T23:58:46;7.22;;;3.10;;
